createdAt,value
2019-03-10T00:03:53.062Z,8.60
2019-03-10T00:08:52.761Z,8.60
2019-03-10T00:13:52.437Z,8.70
2019-03-10T00:18:52.370Z,8.70
2019-03-10T00:23:51.967Z,8.90
2019-03-10T00:28:51.947Z,8.90
2019-03-10T00:33:52.005Z,8.90
2019-03-10T00:39:48.074Z,8.80
2019-03-10T00:45:29.470Z,8.80
2019-03-10T00:51:00.219Z,8.90
2019-03-10T00:55:59.866Z,8.90
2019-03-10T01:00:59.498Z,8.90
2019-03-10T01:05:59.290Z,8.90
2019-03-10T01:10:59.094Z,8.80
2019-03-10T01:15:59.590Z,8.70
2019-03-10T01:21:10.871Z,8.80
2019-03-10T01:26:10.815Z,8.80
2019-03-10T01:31:25.978Z,8.80
2019-03-10T01:36:24.313Z,8.80
2019-03-10T01:41:23.958Z,8.80
2019-03-10T01:46:23.593Z,8.80
2019-03-10T01:51:23.606Z,8.80
2019-03-10T01:56:23.260Z,8.80
2019-03-10T02:01:22.882Z,8.90
2019-03-10T02:06:22.542Z,8.90
2019-03-10T02:11:22.166Z,9.00
2019-03-10T02:16:21.787Z,9.00
2019-03-10T02:21:21.718Z,9.00
2019-03-10T02:26:21.646Z,9.10
2019-03-10T02:31:21.651Z,9.00
2019-03-10T02:36:21.299Z,9.00
2019-03-10T02:41:20.960Z,9.00
2019-03-10T02:46:20.958Z,8.90
2019-03-10T02:51:20.605Z,8.70
2019-03-10T02:56:20.243Z,8.70
2019-03-10T03:01:19.866Z,8.80
2019-03-10T03:06:19.503Z,8.60
2019-03-10T03:11:19.404Z,8.80
2019-03-10T03:16:19.132Z,8.90
2019-03-10T03:21:19.122Z,9.10
2019-03-10T03:26:18.934Z,9.10
2019-03-10T03:31:18.595Z,9.20
2019-03-10T03:36:22.800Z,9.20
2019-03-10T03:41:22.575Z,9.20
2019-03-10T03:46:22.519Z,9.20
2019-03-10T03:51:22.172Z,9.20
2019-03-10T03:56:21.859Z,9.10
2019-03-10T04:01:24.720Z,9.10
2019-03-10T04:06:24.367Z,9.00
2019-03-10T04:11:23.979Z,9.00
2019-03-10T04:16:23.636Z,9.00
2019-03-10T04:21:23.734Z,9.00
2019-03-10T04:26:23.462Z,8.90
2019-03-10T04:31:23.111Z,8.90
2019-03-10T04:36:22.945Z,9.00
2019-03-10T04:41:22.890Z,9.00
2019-03-10T04:46:22.544Z,9.00
2019-03-10T04:51:22.266Z,8.90
2019-03-10T04:56:30.424Z,9.00
2019-03-10T05:01:30.110Z,9.00
2019-03-10T05:06:29.734Z,9.00
2019-03-10T05:11:29.675Z,9.10
2019-03-10T05:16:29.454Z,9.10
2019-03-10T05:21:29.722Z,9.00
2019-03-10T05:26:29.542Z,9.00
2019-03-10T05:31:29.315Z,9.00
2019-03-10T05:36:28.950Z,9.00
2019-03-10T05:41:28.867Z,9.00
2019-03-10T05:46:28.550Z,9.00
2019-03-10T05:51:28.198Z,9.00
2019-03-10T05:56:27.959Z,9.00
2019-03-10T06:01:27.684Z,9.00
2019-03-10T06:06:27.366Z,9.00
2019-03-10T06:11:27.407Z,9.00
2019-03-10T06:16:27.054Z,9.00
2019-03-10T06:21:26.705Z,8.90
2019-03-10T06:26:26.642Z,9.00
2019-03-10T06:31:26.271Z,8.90
2019-03-10T06:36:25.902Z,9.00
2019-03-10T06:41:25.562Z,9.00
2019-03-10T06:46:25.206Z,8.90
2019-03-10T06:51:24.858Z,9.00
2019-03-10T06:56:25.737Z,8.90
2019-03-10T07:01:25.610Z,8.90
2019-03-10T07:06:25.234Z,8.90
2019-03-10T07:11:24.885Z,9.00
2019-03-10T07:16:24.540Z,9.00
2019-03-10T07:21:24.494Z,9.00
2019-03-10T07:26:24.150Z,9.20
2019-03-10T07:31:31.025Z,9.20
2019-03-10T07:36:49.648Z,9.20
2019-03-10T07:42:02.054Z,9.30
2019-03-10T07:47:26.829Z,9.40
2019-03-10T07:52:44.242Z,9.40
2019-03-10T07:58:01.950Z,9.40
2019-03-10T08:03:10.822Z,9.50
2019-03-10T08:08:31.802Z,9.60
2019-03-10T08:13:42.492Z,9.70
2019-03-10T08:19:03.202Z,9.70
2019-03-10T08:24:18.394Z,9.80
2019-03-10T08:29:29.991Z,9.90
2019-03-10T08:34:55.147Z,10.00
2019-03-10T08:40:01.714Z,10.20
2019-03-10T08:45:11.090Z,10.30
2019-03-10T08:50:26.162Z,10.40
2019-03-10T08:55:33.975Z,10.50
2019-03-10T09:00:40.608Z,10.60
2019-03-10T09:06:01.903Z,10.70
2019-03-10T09:11:30.493Z,10.70
2019-03-10T09:16:49.320Z,10.80
2019-03-10T09:22:14.947Z,10.80
2019-03-10T09:27:43.301Z,10.90
2019-03-10T09:32:55.652Z,11.00
2019-03-10T09:38:14.915Z,11.00
2019-03-10T09:43:28.158Z,11.00
2019-03-10T09:48:37.001Z,11.10
2019-03-10T09:53:54.743Z,11.20
2019-03-10T09:59:06.763Z,11.30
2019-03-10T10:04:34.150Z,11.30
2019-03-10T10:09:43.186Z,11.40
2019-03-10T10:15:04.823Z,11.40
2019-03-10T10:20:11.394Z,11.50
2019-03-10T10:25:16.674Z,11.60
2019-03-10T10:30:35.358Z,11.60
2019-03-10T10:36:01.494Z,11.70
2019-03-10T10:41:19.326Z,11.80
2019-03-10T10:46:37.195Z,11.90
2019-03-10T10:52:14.419Z,12.00
2019-03-10T10:57:24.154Z,12.10
2019-03-10T11:02:31.887Z,12.20
2019-03-10T11:07:50.690Z,12.30
2019-03-10T11:12:56.783Z,12.40
2019-03-10T11:18:18.304Z,12.50
2019-03-10T11:23:38.417Z,12.60
2019-03-10T11:29:09.475Z,12.70
2019-03-10T11:34:46.567Z,12.80
2019-03-10T11:39:52.406Z,12.80
2019-03-10T11:45:29.382Z,12.80
2019-03-10T11:50:38.868Z,12.90
2019-03-10T11:55:54.887Z,12.90
2019-03-10T12:01:16.715Z,13.00
2019-03-10T12:06:26.602Z,13.10
2019-03-10T12:11:26.863Z,13.20
2019-03-10T12:16:26.597Z,13.20
2019-03-10T12:21:26.234Z,13.20
2019-03-10T12:26:26.430Z,13.20
2019-03-10T12:31:26.614Z,13.20
2019-03-10T12:36:26.376Z,13.20
2019-03-10T12:41:26.334Z,13.10
2019-03-10T12:46:25.990Z,13.10
2019-03-10T12:51:25.927Z,13.20
2019-03-10T12:56:25.914Z,13.20
2019-03-10T13:01:28.500Z,13.20
2019-03-10T13:06:34.286Z,13.30
2019-03-10T13:11:33.951Z,13.30
2019-03-10T13:16:33.616Z,13.40
2019-03-10T13:21:33.353Z,13.30
2019-03-10T13:26:33.014Z,13.30
2019-03-10T13:31:32.943Z,13.30
2019-03-10T13:36:33.290Z,13.30
2019-03-10T13:41:32.970Z,13.20
2019-03-10T13:46:32.695Z,13.00
2019-03-10T13:51:32.343Z,12.80
2019-03-10T13:56:32.054Z,12.50
2019-03-10T14:01:31.855Z,12.30
2019-03-10T14:06:31.658Z,12.20
2019-03-10T14:11:31.903Z,12.10
2019-03-10T14:16:31.535Z,12.10
2019-03-10T14:21:32.379Z,12.00
2019-03-10T14:26:32.480Z,12.00
2019-03-10T14:31:32.091Z,12.00
2019-03-10T14:36:31.719Z,11.90
2019-03-10T14:41:31.706Z,11.80
2019-03-10T14:46:31.362Z,11.70
2019-03-10T14:51:43.387Z,11.50
2019-03-10T14:56:43.030Z,11.50
2019-03-10T15:01:42.738Z,11.40
2019-03-10T15:06:42.827Z,11.20
2019-03-10T15:11:42.469Z,11.20
2019-03-10T15:16:42.155Z,11.20
2019-03-10T15:21:41.802Z,11.20
2019-03-10T15:26:45.744Z,11.00
2019-03-10T15:31:43.033Z,10.70
2019-03-10T15:36:43.703Z,10.60
2019-03-10T15:41:43.418Z,10.60
2019-03-10T15:46:43.054Z,10.50
2019-03-10T15:51:42.807Z,10.40
2019-03-10T15:56:42.462Z,10.30
2019-03-10T16:01:43.238Z,10.10
2019-03-10T16:06:42.974Z,9.80
2019-03-10T16:11:42.626Z,9.70
2019-03-10T16:16:42.342Z,9.50
2019-03-10T16:21:42.234Z,9.50
2019-03-10T16:26:41.871Z,9.50
2019-03-10T16:31:41.518Z,9.40
2019-03-10T16:36:41.489Z,9.20
2019-03-10T16:41:41.525Z,9.30
2019-03-10T16:46:41.170Z,9.50
2019-03-10T16:51:40.810Z,9.60
2019-03-10T16:56:40.812Z,9.70
2019-03-10T17:01:40.552Z,9.70
2019-03-10T17:06:40.193Z,9.60
2019-03-10T17:11:39.885Z,9.60
2019-03-10T17:16:39.916Z,9.60
2019-03-10T17:21:41.863Z,9.60
2019-03-10T17:26:40.904Z,9.50
2019-03-10T17:31:40.734Z,9.60
2019-03-10T17:36:40.375Z,9.60
2019-03-10T17:41:40.085Z,9.50
2019-03-10T17:46:39.806Z,9.60
2019-03-10T17:51:39.461Z,9.60
2019-03-10T17:56:39.154Z,9.50
2019-03-10T18:01:39.710Z,9.50
2019-03-10T18:06:39.432Z,9.60
2019-03-10T18:11:39.184Z,9.50
2019-03-10T18:16:38.838Z,9.50
2019-03-10T18:21:38.515Z,9.40
2019-03-10T18:26:38.259Z,9.30
2019-03-10T18:31:37.927Z,9.30
2019-03-10T18:36:37.655Z,9.20
2019-03-10T18:41:37.293Z,9.20
2019-03-10T18:46:36.943Z,9.20
2019-03-10T18:51:36.608Z,9.20
2019-03-10T18:56:36.226Z,9.20
2019-03-10T19:01:36.150Z,9.10
2019-03-10T19:06:35.794Z,9.00
2019-03-10T19:11:36.642Z,8.90
2019-03-10T19:16:36.315Z,8.80
2019-03-10T19:21:35.962Z,8.90
2019-03-10T19:26:35.912Z,8.90
2019-03-10T19:31:35.571Z,8.80
2019-03-10T19:36:35.443Z,8.80
2019-03-10T19:41:35.200Z,8.80
2019-03-10T19:46:34.902Z,8.70
2019-03-10T19:51:34.526Z,8.70
2019-03-10T19:56:34.483Z,8.70
2019-03-10T20:01:35.284Z,8.70
2019-03-10T20:06:35.584Z,8.70
2019-03-10T20:11:35.344Z,9.10
2019-03-10T20:16:34.992Z,9.00
2019-03-10T20:21:34.694Z,8.80
2019-03-10T20:26:34.361Z,8.80
2019-03-10T20:31:34.042Z,8.70
2019-03-10T20:36:33.732Z,9.10
2019-03-10T20:41:33.459Z,8.90
2019-03-10T20:46:33.116Z,8.80
2019-03-10T20:51:32.756Z,8.60
2019-03-10T20:56:32.751Z,8.50
2019-03-10T21:01:32.399Z,8.50
2019-03-10T21:06:32.023Z,8.50
2019-03-10T21:11:31.665Z,8.50
2019-03-10T21:16:31.339Z,8.40
2019-03-10T21:21:31.076Z,8.30
2019-03-10T21:26:30.723Z,8.70
2019-03-10T21:31:30.365Z,8.50
2019-03-10T21:36:30.271Z,8.50
2019-03-10T21:41:30.070Z,8.40
2019-03-10T21:46:29.730Z,8.50
2019-03-10T21:51:29.659Z,8.50
2019-03-10T21:56:29.291Z,8.50
2019-03-10T22:01:28.931Z,8.40
2019-03-10T22:06:28.622Z,8.40
2019-03-10T22:11:28.278Z,8.50
2019-03-10T22:16:27.939Z,8.50
2019-03-10T22:21:27.614Z,8.40
2019-03-10T22:26:27.323Z,8.30
2019-03-10T22:31:26.992Z,8.30
2019-03-10T22:36:26.735Z,8.30
2019-03-10T22:41:26.387Z,8.40
2019-03-10T22:46:26.031Z,8.40
2019-03-10T22:51:25.677Z,8.30
2019-03-10T22:56:25.603Z,8.40
2019-03-10T23:01:25.457Z,8.50
2019-03-10T23:06:25.137Z,8.60
2019-03-10T23:11:25.845Z,8.50
2019-03-10T23:16:25.570Z,8.40
2019-03-10T23:21:25.203Z,8.30
2019-03-10T23:26:25.156Z,8.40
2019-03-10T23:31:24.868Z,8.40
2019-03-10T23:36:24.505Z,8.40
2019-03-10T23:41:24.169Z,8.40
2019-03-10T23:46:24.107Z,8.30
2019-03-10T23:51:24.034Z,8.20
2019-03-10T23:56:23.691Z,8.30
